Time;durP1;ratioP1;P1;durP2;ratioP2;P2;SDS_P1;SDS_P2;PMS_P1;PMS_P2;Temp;Humidity;BMP_temperature;BMP_pressure;BME280_temperature;BME280_humidity;BME280_pressure;Samples;Min_cycle;Max_cycle;Signal;HPM_P1;HPM_P2
2021/12/03 00:00:00;;;;;;;1.90;1.30;;;13.70;65.00;;;;;;10365471;28;20661;-82
2021/12/03 00:05:07;;;;;;;2.17;1.43;;;13.50;65.50;;;;;;10367142;28;20261;-82
2021/12/03 00:10:14;;;;;;;2.43;1.63;;;13.40;66.10;;;;;;10363874;28;20621;-82
2021/12/03 00:15:18;;;;;;;2.07;1.40;;;13.60;64.60;;;;;;10361939;28;20651;-82
2021/12/03 00:20:22;;;;;;;2.63;1.67;;;14.00;64.40;;;;;;10362143;28;20298;-82
2021/12/03 00:25:25;;;;;;;2.27;1.37;;;13.40;64.80;;;;;;10356757;28;20323;-82
2021/12/03 00:30:28;;;;;;;1.90;1.13;;;13.30;63.00;;;;;;10363065;28;20311;-82
2021/12/03 00:35:31;;;;;;;2.23;1.30;;;13.20;65.90;;;;;;10362635;28;20299;-83
2021/12/03 00:40:39;;;;;;;2.03;1.10;;;13.60;63.70;;;;;;10364042;28;20306;-82
2021/12/03 00:45:43;;;;;;;2.50;1.20;;;13.30;65.00;;;;;;10361920;28;20291;-82
2021/12/03 00:50:46;;;;;;;1.70;1.33;;;13.40;65.10;;;;;;10364745;28;20244;-82
2021/12/03 00:55:49;;;;;;;1.73;1.10;;;13.50;65.10;;;;;;10359520;28;20764;-83
2021/12/03 01:00:52;;;;;;;3.43;1.30;;;13.80;64.60;;;;;;10367977;28;20749;-82
2021/12/03 01:05:56;;;;;;;1.70;0.90;;;13.40;65.20;;;;;;10367879;28;20632;-82
2021/12/03 01:10:59;;;;;;;0.97;0.87;;;13.70;64.80;;;;;;10370569;28;20262;-82
2021/12/03 01:16:02;;;;;;;1.60;1.00;;;12.90;62.50;;;;;;10341334;28;20298;-82
2021/12/03 01:21:05;;;;;;;1.20;1.10;;;13.80;64.50;;;;;;10332387;28;20798;-82
2021/12/03 01:26:08;;;;;;;2.30;1.10;;;13.80;64.20;;;;;;10367894;28;20233;-82
2021/12/03 01:31:11;;;;;;;2.53;1.47;;;13.90;64.30;;;;;;10371129;28;20233;-82
2021/12/03 01:36:14;;;;;;;1.63;0.93;;;13.60;64.70;;;;;;10370836;28;20239;-82
2021/12/03 01:41:17;;;;;;;2.10;1.10;;;14.00;63.90;;;;;;10371333;28;20758;-82
2021/12/03 01:46:20;;;;;;;2.13;0.93;;;13.70;64.20;;;;;;10370121;28;20298;-82
2021/12/03 01:51:23;;;;;;;1.17;0.80;;;13.80;64.40;;;;;;10372120;28;20257;-82
2021/12/03 01:56:25;;;;;;;2.20;1.17;;;13.40;65.10;;;;;;10371029;28;20238;-82
2021/12/03 02:01:28;;;;;;;3.17;1.30;;;13.70;64.10;;;;;;10368288;28;20307;-81
2021/12/03 02:06:32;;;;;;;2.47;1.30;;;13.70;61.70;;;;;;10332200;28;20252;-82
2021/12/03 02:11:35;;;;;;;1.70;0.90;;;13.90;64.00;;;;;;10383088;28;20261;-82
2021/12/03 02:16:38;;;;;;;1.63;1.00;;;13.80;64.10;;;;;;10331520;28;20234;-82
2021/12/03 02:21:41;;;;;;;1.50;0.93;;;13.90;63.40;;;;;;10333282;28;20297;-82
2021/12/03 02:26:44;;;;;;;1.80;1.10;;;13.90;63.20;;;;;;10367945;28;20240;-83
2021/12/03 02:31:47;;;;;;;1.60;1.07;;;13.90;63.40;;;;;;10367169;28;20243;-82
2021/12/03 02:36:49;;;;;;;1.90;1.03;;;13.70;62.10;;;;;;10329748;28;20238;-82
2021/12/03 02:41:52;;;;;;;2.37;1.03;;;13.60;63.80;;;;;;10359945;28;20306;-83
2021/12/03 02:46:54;;;;;;;1.77;0.97;;;13.70;63.50;;;;;;10366581;28;20230;-82
2021/12/03 02:51:57;;;;;;;2.10;1.40;;;13.60;63.60;;;;;;10367201;28;20688;-82
2021/12/03 02:57:01;;;;;;;2.00;1.57;;;13.70;63.30;;;;;;10359904;28;20229;-82
2021/12/03 03:02:04;;;;;;;3.23;1.50;;;13.90;62.90;;;;;;10365911;28;20254;-82
2021/12/03 03:07:25;;;;;;;3.50;1.10;;;13.90;62.80;;;;;;10366576;28;20219;-82
2021/12/03 03:12:27;;;;;;;1.53;0.77;;;13.80;62.80;;;;;;10359970;28;20232;-82
2021/12/03 03:17:30;;;;;;;1.50;1.03;;;13.80;62.80;;;;;;10366471;28;20259;-82
2021/12/03 03:22:35;;;;;;;2.00;0.97;;;13.80;62.60;;;;;;10364249;28;20253;-82
2021/12/03 03:27:38;;;;;;;0.93;0.80;;;13.90;63.00;;;;;;10367197;28;20811;-82
2021/12/03 03:32:42;;;;;;;1.40;1.00;;;13.90;62.40;;;;;;10356999;28;20229;-82
2021/12/03 03:37:45;;;;;;;1.60;1.00;;;13.90;62.20;;;;;;10325426;28;20277;-83
2021/12/03 03:42:48;;;;;;;2.70;1.10;;;13.90;62.40;;;;;;10347038;28;20710;-82
2021/12/03 03:47:51;;;;;;;2.27;1.20;;;13.90;62.30;;;;;;10366378;28;20672;-82
2021/12/03 03:52:54;;;;;;;1.23;0.97;;;13.90;62.30;;;;;;10354728;28;20242;-82
2021/12/03 03:57:59;;;;;;;4.40;1.07;;;13.80;62.30;;;;;;10362488;28;20263;-82
2021/12/03 04:03:02;;;;;;;2.77;1.20;;;13.80;62.30;;;;;;10364920;28;20656;-82
2021/12/03 04:08:06;;;;;;;1.60;1.20;;;13.80;62.30;;;;;;10364227;28;20226;-82
2021/12/03 04:13:09;;;;;;;2.23;1.10;;;13.80;62.50;;;;;;10352880;28;20226;-82
2021/12/03 04:18:11;;;;;;;2.83;1.27;;;13.90;62.20;;;;;;10331162;28;20235;-82
2021/12/03 04:23:18;;;;;;;1.10;1.00;;;13.80;62.50;;;;;;10364705;28;20248;-82
2021/12/03 04:28:21;;;;;;;2.03;1.40;;;13.80;62.40;;;;;;10363218;28;20236;-82
2021/12/03 04:33:25;;;;;;;2.50;1.40;;;13.90;62.20;;;;;;10352882;28;20232;-82
2021/12/03 04:38:28;;;;;;;2.17;1.27;;;13.80;62.70;;;;;;10341942;28;20230;-83
2021/12/03 04:43:31;;;;;;;1.43;0.87;;;13.80;62.20;;;;;;10371629;28;20852;-82
2021/12/03 04:48:34;;;;;;;2.13;1.10;;;13.80;62.10;;;;;;10373148;28;20226;-83
2021/12/03 04:53:37;;;;;;;3.13;1.50;;;13.80;62.20;;;;;;10355783;28;20305;-82
2021/12/03 04:58:39;;;;;;;2.23;1.07;;;13.70;61.90;;;;;;10341658;28;20276;-82
2021/12/03 05:03:42;;;;;;;3.97;1.43;;;13.70;62.20;;;;;;10370645;28;20722;-82
2021/12/03 05:08:45;;;;;;;2.63;1.13;;;13.70;62.20;;;;;;10370340;28;20229;-83
2021/12/03 05:13:47;;;;;;;4.80;1.27;;;13.60;62.10;;;;;;10370192;28;20671;-82
2021/12/03 05:18:50;;;;;;;2.03;1.03;;;13.70;62.10;;;;;;10371579;28;20333;-82
2021/12/03 05:23:53;;;;;;;4.20;1.83;;;13.50;62.40;;;;;;10370610;28;20662;-83
2021/12/03 05:28:55;;;;;;;3.67;2.23;;;13.50;62.50;;;;;;10370451;28;20731;-82
2021/12/03 05:33:59;;;;;;;5.70;1.87;;;13.60;62.30;;;;;;10352372;28;20613;-82
2021/12/03 05:39:01;;;;;;;2.17;1.70;;;13.70;62.10;;;;;;10338614;28;20238;-82
2021/12/03 05:44:07;;;;;;;3.97;2.27;;;13.60;62.20;;;;;;10340511;28;20249;-82
2021/12/03 05:49:10;;;;;;;4.83;1.90;;;13.60;62.30;;;;;;10338934;28;20230;-82
2021/12/03 05:54:12;;;;;;;4.87;2.43;;;13.60;62.30;;;;;;10344122;28;20250;-82
2021/12/03 05:59:15;;;;;;;4.10;1.97;;;13.70;62.10;;;;;;10329236;28;20274;-82
2021/12/03 06:04:17;;;;;;;2.70;2.33;;;13.40;62.70;;;;;;10363666;28;20300;-82
2021/12/03 06:09:20;;;;;;;6.97;2.40;;;13.70;62.10;;;;;;10351831;28;20238;-82
2021/12/03 06:14:23;;;;;;;3.67;2.50;;;13.70;62.10;;;;;;10366990;28;20231;-82
2021/12/03 06:19:26;;;;;;;3.27;2.40;;;13.70;61.90;;;;;;10369367;28;20669;-82
2021/12/03 06:24:28;;;;;;;5.90;2.67;;;13.70;61.90;;;;;;10366106;28;20294;-82
2021/12/03 06:29:31;;;;;;;4.93;2.43;;;13.80;61.80;;;;;;10369186;28;20293;-82
2021/12/03 06:34:34;;;;;;;6.30;2.83;;;13.70;61.60;;;;;;10330673;28;20286;-81
2021/12/03 06:39:36;;;;;;;4.73;3.10;;;13.70;61.60;;;;;;10338064;28;20234;-81
2021/12/03 06:44:39;;;;;;;6.13;2.97;;;13.80;61.40;;;;;;10360819;28;20673;-82
2021/12/03 06:49:42;;;;;;;8.57;2.60;;;13.80;61.30;;;;;;10388622;28;20228;-82
2021/12/03 06:54:53;;;;;;;5.00;2.77;;;13.80;61.30;;;;;;10362883;28;20246;-81
2021/12/03 06:59:56;;;;;;;5.17;2.87;;;13.70;61.30;;;;;;10366464;28;20286;-84
2021/12/03 07:04:59;;;;;;;4.23;2.57;;;13.90;60.40;;;;;;10364625;28;20652;-81
2021/12/03 07:10:06;;;;;;;4.37;2.43;;;13.80;61.00;;;;;;10364611;28;20237;-80
2021/12/03 07:15:09;;;;;;;13.30;3.63;;;13.60;61.00;;;;;;10363988;28;20279;-83
2021/12/03 07:20:12;;;;;;;10.70;3.00;;;10.50;57.20;;;;;;10364695;28;20811;-83
2021/12/03 07:25:14;;;;;;;6.87;3.37;;;11.80;56.60;;;;;;10366601;28;20263;-83
2021/12/03 07:30:34;;;;;;;10.90;3.60;;;12.60;54.30;;;;;;10357714;28;20873;-80
2021/12/03 07:35:37;;;;;;;6.90;2.73;;;11.30;60.50;;;;;;10358438;28;20232;-80
2021/12/03 07:40:40;;;;;;;8.40;2.70;;;12.30;56.70;;;;;;10343779;28;20757;-80
2021/12/03 07:45:43;;;;;;;4.37;2.70;;;12.70;55.80;;;;;;10364945;28;20303;-80
2021/12/03 07:50:46;;;;;;;8.53;2.77;;;13.20;55.80;;;;;;10363622;28;20692;-80
2021/12/03 07:55:50;;;;;;;5.97;2.63;;;13.50;55.50;;;;;;10363660;28;20259;-80
2021/12/03 08:00:54;;;;;;;10.30;2.90;;;13.70;55.60;;;;;;10348444;28;20632;-81
2021/12/03 08:06:03;;;;;;;5.33;2.73;;;14.00;55.40;;;;;;10360608;28;20273;-80
2021/12/03 08:11:06;;;;;;;4.03;2.60;;;14.20;55.40;;;;;;10358063;28;20305;-80
2021/12/03 08:16:09;;;;;;;4.67;1.77;;;14.30;54.10;;;;;;10363435;28;20235;-80
2021/12/03 08:21:12;;;;;;;5.93;3.20;;;14.50;55.40;;;;;;10360070;28;20669;-80
2021/12/03 08:26:15;;;;;;;5.43;2.13;;;14.50;55.30;;;;;;10361314;28;20231;-80
2021/12/03 08:31:20;;;;;;;3.57;2.20;;;14.60;55.40;;;;;;10342125;28;20628;-80
2021/12/03 08:36:23;;;;;;;4.90;2.90;;;14.50;55.70;;;;;;10359696;28;20236;-80
2021/12/03 08:41:26;;;;;;;5.47;2.40;;;14.50;55.90;;;;;;10361081;28;20305;-80
2021/12/03 08:46:38;;;;;;;5.17;2.03;;;14.50;55.90;;;;;;10359685;28;20651;-80
2021/12/03 08:56:45;;;;;;;4.80;2.20;;;14.50;56.40;;;;;;10360961;28;20279;-81
2021/12/03 09:01:47;;;;;;;3.93;2.27;;;14.60;56.30;;;;;;10357055;28;20349;-80
2021/12/03 09:06:50;;;;;;;4.43;2.40;;;14.70;56.20;;;;;;10359906;28;20231;-80
2021/12/03 09:11:54;;;;;;;5.77;2.63;;;14.70;56.30;;;;;;10362485;28;20248;-80
2021/12/03 09:17:20;;;;;;;3.77;2.27;;;14.70;56.50;;;;;;10362078;28;20306;-80
2021/12/03 09:22:36;;;;;;;4.43;2.17;;;14.70;56.40;;;;;;10365049;28;20302;-80
2021/12/03 09:27:39;;;;;;;6.47;3.77;;;14.70;56.50;;;;;;10351447;28;20250;-80
2021/12/03 09:32:47;;;;;;;5.13;2.40;;;13.60;57.00;;;;;;10344343;28;20232;-80
2021/12/03 09:37:50;;;;;;;4.93;3.07;;;14.70;57.70;;;;;;10366907;28;20745;-80
2021/12/03 09:42:53;;;;;;;3.47;2.07;;;14.70;57.80;;;;;;10340449;28;20264;-81
2021/12/03 09:47:56;;;;;;;6.17;2.63;;;14.60;57.60;;;;;;10348653;28;20243;-80
2021/12/03 09:53:09;;;;;;;3.37;2.23;;;14.60;55.80;;;;;;10358406;28;20289;-80
2021/12/03 10:03:38;;;;;;;4.40;2.60;;;14.70;57.50;;;;;;10362139;28;20263;-80
2021/12/03 10:19:34;;;;;;;5.50;2.30;;;14.70;57.50;;;;;;10367665;28;20267;-81
2021/12/03 10:24:54;;;;;;;5.77;1.90;;;14.60;57.50;;;;;;10340179;28;20267;-81
2021/12/03 10:30:22;;;;;;;3.83;2.47;;;14.60;57.40;;;;;;10357341;28;20303;-81
2021/12/03 10:35:39;;;;;;;6.37;2.50;;;14.60;57.70;;;;;;10347574;28;20242;-81
2021/12/03 10:52:15;;;;;;;5.30;2.73;;;14.40;57.60;;;;;;10378618;28;20228;-80
2021/12/03 10:56:59;;;;;;;2.70;2.27;;;14.40;57.70;;;;;;10355984;28;20216;-80
2021/12/03 11:02:50;;;;;;;3.60;1.87;;;14.40;57.80;;;;;;10360452;28;20733;-81
2021/12/03 11:08:05;;;;;;;2.67;2.43;;;14.40;57.80;;;;;;10361466;28;20223;-81
2021/12/03 11:19:06;;;;;;;3.60;2.10;;;14.40;57.70;;;;;;10365565;28;20718;-81
2021/12/03 11:52:14;;;;;;;3.90;1.77;;;14.40;57.90;;;;;;10350812;28;20312;-80
2021/12/03 12:57:23;;;;;;;3.00;1.90;;;14.40;58.10;;;;;;10365109;28;20668;-80
2021/12/03 13:40:15;;;;;;;4.53;2.07;;;14.20;58.60;;;;;;10323179;28;20274;-81
2021/12/03 13:46:09;;;;;;;3.20;2.00;;;14.20;58.70;;;;;;10313187;28;20367;-81
2021/12/03 14:06:59;;;;;;;2.77;2.03;;;14.10;58.80;;;;;;10361256;28;20664;-81
2021/12/03 14:24:19;;;;;;;2.83;1.83;;;14.10;59.10;;;;;;10360307;28;20333;-81
2021/12/03 14:44:10;;;;;;;2.90;1.93;;;13.90;58.60;;;;;;10360414;28;20326;-81
2021/12/03 14:50:06;;;;;;;3.53;2.20;;;14.10;59.40;;;;;;10355853;28;20271;-81
2021/12/03 14:59:50;;;;;;;5.53;2.80;;;14.10;59.20;;;;;;10360275;28;21122;-79
2021/12/03 15:10:03;;;;;;;4.27;2.17;;;14.10;59.20;;;;;;10343082;28;20323;-80
2021/12/03 15:20:48;;;;;;;3.57;2.10;;;14.00;59.30;;;;;;10378516;28;20252;-79
2021/12/03 15:26:02;;;;;;;9.33;4.37;;;13.80;59.70;;;;;;10365314;28;20800;-83
2021/12/03 15:36:48;;;;;;;12.33;5.30;;;12.60;55.90;;;;;;10348223;28;20539;-84
2021/12/03 16:03:39;;;;;;;15.57;4.97;;;13.60;55.20;;;;;;10350760;28;20265;-84
2021/12/03 16:08:44;;;;;;;11.70;5.30;;;13.70;55.10;;;;;;10365732;28;20233;-84
2021/12/03 16:13:53;;;;;;;11.43;4.67;;;13.70;55.40;;;;;;10363571;28;20305;-84
2021/12/03 16:50:50;;;;;;;9.73;4.87;;;14.00;55.10;;;;;;10347797;28;20226;-83
2021/12/03 16:56:03;;;;;;;9.17;5.30;;;14.30;54.80;;;;;;10363054;28;20227;-83
2021/12/03 17:01:18;;;;;;;13.80;7.17;;;14.50;54.80;;;;;;10342252;28;20615;-83
2021/12/03 17:17:20;;;;;;;9.37;4.83;;;14.50;55.30;;;;;;10365349;28;20290;-84
2021/12/03 17:28:40;;;;;;;5.73;3.60;;;14.80;55.40;;;;;;10346870;28;20254;-83
2021/12/03 17:54:57;;;;;;;7.10;4.27;;;15.10;55.10;;;;;;10369006;28;20242;-84
2021/12/03 18:00:05;;;;;;;11.13;5.03;;;15.00;55.40;;;;;;10348591;28;20309;-84
2021/12/03 18:05:34;;;;;;;7.53;4.70;;;14.90;55.70;;;;;;10326707;28;20315;-84
2021/12/03 18:10:51;;;;;;;6.00;4.20;;;15.00;55.80;;;;;;10346107;28;20293;-85
2021/12/03 18:43:24;;;;;;;8.50;4.67;;;14.80;56.40;;;;;;10351441;28;20282;-84
2021/12/03 18:48:29;;;;;;;8.33;4.40;;;14.80;57.00;;;;;;10348446;28;20301;-84
2021/12/03 18:58:39;;;;;;;9.50;4.67;;;14.90;56.70;;;;;;10321024;28;20281;-85
2021/12/03 19:09:09;;;;;;;11.13;4.67;;;14.80;57.10;;;;;;10359486;28;20244;-84
2021/12/03 19:14:12;;;;;;;8.70;4.93;;;14.70;57.10;;;;;;10357711;28;20337;-85
2021/12/03 19:19:16;;;;;;;8.20;4.87;;;14.60;57.40;;;;;;10348023;28;20263;-85
2021/12/03 19:24:20;;;;;;;9.53;5.20;;;14.60;57.50;;;;;;10363837;28;20309;-85
2021/12/03 19:29:24;;;;;;;8.40;5.10;;;14.60;57.50;;;;;;10361924;28;20240;-85
2021/12/03 19:34:27;;;;;;;9.40;4.87;;;14.70;57.50;;;;;;10334412;28;20270;-84
2021/12/03 19:39:30;;;;;;;10.80;5.20;;;14.50;57.70;;;;;;10343692;28;20665;-84
2021/12/03 19:44:40;;;;;;;11.03;6.90;;;14.50;58.00;;;;;;10332710;28;20241;-85
2021/12/03 19:54:45;;;;;;;8.97;4.93;;;13.00;60.20;;;;;;10340214;28;20235;-85
2021/12/03 19:59:48;;;;;;;10.20;6.50;;;12.80;61.30;;;;;;10364254;28;20698;-85
2021/12/03 20:04:52;;;;;;;9.90;5.87;;;12.70;62.70;;;;;;10354036;28;20666;-85
2021/12/03 20:10:03;;;;;;;18.17;8.07;;;12.70;63.00;;;;;;10360150;28;20230;-85
2021/12/03 20:15:10;;;;;;;9.70;5.57;;;12.30;55.70;;;;;;10346612;28;20275;-85
2021/12/03 20:20:13;;;;;;;7.67;4.57;;;11.60;63.30;;;;;;10006195;28;10000057;-85
2021/12/03 20:25:37;;;;;;;8.73;4.70;;;12.60;64.40;;;;;;10353355;28;20306;-85
2021/12/03 20:30:45;;;;;;;7.53;4.63;;;12.90;63.50;;;;;;10347320;28;20281;-85
2021/12/03 20:40:54;;;;;;;7.73;4.83;;;12.80;61.70;;;;;;10339007;28;20844;-85
2021/12/03 20:46:10;;;;;;;15.67;6.70;;;12.40;64.20;;;;;;10356664;28;20259;-85
2021/12/03 21:12:45;;;;;;;9.67;4.97;;;12.50;64.80;;;;;;10357345;28;20702;-86
2021/12/03 21:23:11;;;;;;;9.60;5.27;;;13.20;62.80;;;;;;10356459;28;20807;-86
2021/12/03 21:39:01;;;;;;;8.83;5.40;;;13.30;61.80;;;;;;10359432;28;20245;-86
2021/12/03 21:44:06;;;;;;;8.10;5.30;;;13.30;63.20;;;;;;10342960;28;20550;-85
2021/12/03 21:49:14;;;;;;;15.50;8.27;;;13.30;62.30;;;;;;10331398;28;20315;-86
2021/12/03 21:54:18;;;;;;;16.83;9.90;;;13.00;59.50;;;;;;10353211;28;20293;-85
2021/12/03 21:59:21;;;;;;;15.60;7.40;;;11.50;61.00;;;;;;10362610;28;20315;-86
2021/12/03 22:04:24;;;;;;;13.33;7.37;;;10.70;63.10;;;;;;10339100;28;20660;-85
2021/12/03 22:09:27;;;;;;;11.03;6.00;;;11.00;64.80;;;;;;10364764;28;20266;-85
2021/12/03 22:14:29;;;;;;;8.73;4.93;;;11.50;64.30;;;;;;10342243;28;20246;-85
2021/12/03 22:19:33;;;;;;;9.40;5.77;;;11.20;69.30;;;;;;10367875;28;20265;-85
2021/12/03 22:24:40;;;;;;;9.00;5.10;;;10.80;66.80;;;;;;10365290;28;20262;-85
2021/12/03 22:29:43;;;;;;;10.83;6.53;;;10.70;67.90;;;;;;10348200;28;20644;-85
2021/12/03 22:34:46;;;;;;;6.50;4.93;;;10.70;66.00;;;;;;10343711;28;20310;-86
2021/12/03 22:39:48;;;;;;;9.03;5.43;;;11.30;64.90;;;;;;10356008;28;20761;-85
2021/12/03 22:44:52;;;;;;;8.20;5.13;;;11.60;62.30;;;;;;10361916;28;20273;-85
2021/12/03 22:50:15;;;;;;;10.13;6.07;;;11.10;69.40;;;;;;10354571;28;20686;-85
2021/12/03 22:55:17;;;;;;;11.03;7.27;;;11.30;67.20;;;;;;10346340;28;20678;-82
2021/12/03 23:00:32;;;;;;;11.63;7.37;;;9.00;77.50;;;;;;10346849;28;20288;-82
2021/12/03 23:05:35;;;;;;;7.40;4.70;;;10.20;79.20;;;;;;10366776;28;20306;-82
2021/12/03 23:10:38;;;;;;;15.23;9.43;;;11.50;79.50;;;;;;10365853;28;20231;-82
2021/12/03 23:15:41;;;;;;;13.50;6.57;;;3.70;99.90;;;;;;10366603;28;20228;-83
2021/12/03 23:20:44;;;;;;;14.40;7.70;;;8.30;99.90;;;;;;10360670;28;20247;-83
2021/12/03 23:25:51;;;;;;;10.77;6.57;;;10.20;93.10;;;;;;10361922;28;20244;-83
2021/12/03 23:30:55;;;;;;;12.33;5.97;;;10.20;96.70;;;;;;10364060;28;20232;-83
2021/12/03 23:36:02;;;;;;;13.13;6.90;;;11.10;93.70;;;;;;10364479;28;20229;-83
2021/12/03 23:41:04;;;;;;;12.00;6.60;;;11.70;86.30;;;;;;10364560;28;20225;-83
2021/12/03 23:46:08;;;;;;;9.60;5.77;;;11.40;85.70;;;;;;10364234;28;20781;-82
2021/12/03 23:51:11;;;;;;;11.07;6.33;;;12.00;87.80;;;;;;10366921;28;20313;-82
2021/12/03 23:56:14;;;;;;;13.93;7.20;;;11.90;85.20;;;;;;10365806;28;20238;-83
